sensor_id;sensor_type;location;lat;lon;timestamp;P1;durP1;ratioP1;P2;durP2;ratioP2
56567;SDS011;42456;49.956;20.004;2023-01-29T00:01:36;23.90;;;11.40;;
56567;SDS011;42456;49.956;20.004;2023-01-29T00:04:03;24.60;;;11.20;;
56567;SDS011;42456;49.956;20.004;2023-01-29T00:06:31;27.00;;;12.40;;
56567;SDS011;42456;49.956;20.004;2023-01-29T00:08:58;27.40;;;13.10;;
56567;SDS011;42456;49.956;20.004;2023-01-29T00:11:25;25.40;;;12.70;;
56567;SDS011;42456;49.956;20.004;2023-01-29T00:13:52;26.30;;;12.00;;
56567;SDS011;42456;49.956;20.004;2023-01-29T00:16:19;26.50;;;12.00;;
56567;SDS011;42456;49.956;20.004;2023-01-29T00:19:00;28.60;;;12.40;;
56567;SDS011;42456;49.956;20.004;2023-01-29T00:21:28;24.90;;;11.40;;
56567;SDS011;42456;49.956;20.004;2023-01-29T00:23:58;23.10;;;10.70;;
56567;SDS011;42456;49.956;20.004;2023-01-29T00:26:26;25.30;;;11.40;;
56567;SDS011;42456;49.956;20.004;2023-01-29T00:28:53;25.30;;;11.00;;
56567;SDS011;42456;49.956;20.004;2023-01-29T00:31:22;27.40;;;12.10;;
56567;SDS011;42456;49.956;20.004;2023-01-29T00:33:50;27.10;;;11.90;;
56567;SDS011;42456;49.956;20.004;2023-01-29T00:36:18;25.80;;;12.60;;
56567;SDS011;42456;49.956;20.004;2023-01-29T00:38:46;27.30;;;12.00;;
56567;SDS011;42456;49.956;20.004;2023-01-29T00:41:20;23.70;;;11.10;;
56567;SDS011;42456;49.956;20.004;2023-01-29T00:44:01;22.90;;;10.90;;
56567;SDS011;42456;49.956;20.004;2023-01-29T00:46:42;22.50;;;10.30;;
56567;SDS011;42456;49.956;20.004;2023-01-29T00:49:09;23.50;;;9.30;;
56567;SDS011;42456;49.956;20.004;2023-01-29T00:51:36;22.40;;;10.60;;
56567;SDS011;42456;49.956;20.004;2023-01-29T00:54:04;22.80;;;10.20;;
56567;SDS011;42456;49.956;20.004;2023-01-29T00:56:35;21.50;;;9.90;;
56567;SDS011;42456;49.956;20.004;2023-01-29T00:59:03;21.50;;;9.40;;
56567;SDS011;42456;49.956;20.004;2023-01-29T01:01:30;22.40;;;10.00;;
56567;SDS011;42456;49.956;20.004;2023-01-29T01:04:10;19.50;;;8.90;;
56567;SDS011;42456;49.956;20.004;2023-01-29T01:06:38;21.20;;;9.20;;
56567;SDS011;42456;49.956;20.004;2023-01-29T01:09:06;20.20;;;8.80;;
56567;SDS011;42456;49.956;20.004;2023-01-29T01:11:47;18.50;;;8.70;;
56567;SDS011;42456;49.956;20.004;2023-01-29T01:14:14;18.10;;;8.10;;
56567;SDS011;42456;49.956;20.004;2023-01-29T01:16:41;18.50;;;8.10;;
56567;SDS011;42456;49.956;20.004;2023-01-29T01:19:08;14.60;;;7.10;;
56567;SDS011;42456;49.956;20.004;2023-01-29T01:21:35;17.90;;;7.30;;
56567;SDS011;42456;49.956;20.004;2023-01-29T01:24:02;16.50;;;6.90;;
56567;SDS011;42456;49.956;20.004;2023-01-29T01:26:31;15.50;;;6.60;;
56567;SDS011;42456;49.956;20.004;2023-01-29T01:28:58;15.30;;;7.70;;
56567;SDS011;42456;49.956;20.004;2023-01-29T01:31:25;13.60;;;6.40;;
56567;SDS011;42456;49.956;20.004;2023-01-29T01:33:53;13.20;;;6.60;;
56567;SDS011;42456;49.956;20.004;2023-01-29T01:36:21;15.20;;;6.90;;
56567;SDS011;42456;49.956;20.004;2023-01-29T01:38:48;13.30;;;6.10;;
56567;SDS011;42456;49.956;20.004;2023-01-29T01:41:16;15.70;;;7.10;;
56567;SDS011;42456;49.956;20.004;2023-01-29T01:43:55;15.50;;;6.90;;
56567;SDS011;42456;49.956;20.004;2023-01-29T01:46:24;16.40;;;7.40;;
56567;SDS011;42456;49.956;20.004;2023-01-29T01:51:23;20.60;;;8.60;;
56567;SDS011;42456;49.956;20.004;2023-01-29T01:53:58;23.50;;;8.40;;
56567;SDS011;42456;49.956;20.004;2023-01-29T01:56:30;18.50;;;7.80;;
56567;SDS011;42456;49.956;20.004;2023-01-29T01:59:08;15.90;;;7.80;;
56567;SDS011;42456;49.956;20.004;2023-01-29T02:01:37;20.10;;;8.50;;
56567;SDS011;42456;49.956;20.004;2023-01-29T02:04:09;17.20;;;7.50;;
56567;SDS011;42456;49.956;20.004;2023-01-29T02:06:52;18.90;;;8.50;;
56567;SDS011;42456;49.956;20.004;2023-01-29T02:09:43;16.80;;;7.30;;
56567;SDS011;42456;49.956;20.004;2023-01-29T02:12:16;15.00;;;6.70;;
56567;SDS011;42456;49.956;20.004;2023-01-29T02:14:45;14.60;;;7.50;;
56567;SDS011;42456;49.956;20.004;2023-01-29T02:17:13;15.80;;;6.90;;
56567;SDS011;42456;49.956;20.004;2023-01-29T02:30:40;18.10;;;7.70;;
56567;SDS011;42456;49.956;20.004;2023-01-29T02:36:04;16.80;;;6.70;;
56567;SDS011;42456;49.956;20.004;2023-01-29T02:38:40;14.40;;;6.50;;
56567;SDS011;42456;49.956;20.004;2023-01-29T02:41:33;14.20;;;6.60;;
56567;SDS011;42456;49.956;20.004;2023-01-29T02:44:14;13.80;;;6.60;;
56567;SDS011;42456;49.956;20.004;2023-01-29T02:47:03;17.90;;;8.20;;
56567;SDS011;42456;49.956;20.004;2023-01-29T02:49:59;16.40;;;7.10;;
56567;SDS011;42456;49.956;20.004;2023-01-29T02:55:23;16.10;;;7.50;;
56567;SDS011;42456;49.956;20.004;2023-01-29T03:00:52;16.10;;;7.70;;
56567;SDS011;42456;49.956;20.004;2023-01-29T03:03:28;17.80;;;7.20;;
56567;SDS011;42456;49.956;20.004;2023-01-29T03:08:42;17.90;;;7.60;;
56567;SDS011;42456;49.956;20.004;2023-01-29T03:11:15;16.30;;;7.80;;
56567;SDS011;42456;49.956;20.004;2023-01-29T03:13:54;15.10;;;6.80;;
56567;SDS011;42456;49.956;20.004;2023-01-29T03:16:26;15.90;;;7.40;;
56567;SDS011;42456;49.956;20.004;2023-01-29T03:19:09;16.40;;;7.20;;
56567;SDS011;42456;49.956;20.004;2023-01-29T03:21:43;17.10;;;7.00;;
56567;SDS011;42456;49.956;20.004;2023-01-29T03:24:17;16.60;;;7.20;;
56567;SDS011;42456;49.956;20.004;2023-01-29T03:27:06;15.40;;;7.00;;
56567;SDS011;42456;49.956;20.004;2023-01-29T03:29:49;16.50;;;6.80;;
56567;SDS011;42456;49.956;20.004;2023-01-29T03:32:32;17.40;;;8.30;;
56567;SDS011;42456;49.956;20.004;2023-01-29T03:35:02;18.30;;;8.30;;
56567;SDS011;42456;49.956;20.004;2023-01-29T03:37:33;16.80;;;8.10;;
56567;SDS011;42456;49.956;20.004;2023-01-29T03:40:04;18.00;;;8.00;;
56567;SDS011;42456;49.956;20.004;2023-01-29T03:45:21;19.60;;;8.40;;
56567;SDS011;42456;49.956;20.004;2023-01-29T03:53:22;16.60;;;7.30;;
56567;SDS011;42456;49.956;20.004;2023-01-29T03:56:00;18.30;;;8.60;;
56567;SDS011;42456;49.956;20.004;2023-01-29T03:58:34;16.40;;;8.00;;
56567;SDS011;42456;49.956;20.004;2023-01-29T04:01:14;21.30;;;10.10;;
56567;SDS011;42456;49.956;20.004;2023-01-29T04:03:47;21.20;;;9.20;;
56567;SDS011;42456;49.956;20.004;2023-01-29T04:06:22;23.70;;;9.70;;
56567;SDS011;42456;49.956;20.004;2023-01-29T04:11:22;23.40;;;9.80;;
56567;SDS011;42456;49.956;20.004;2023-01-29T04:13:51;21.10;;;9.40;;
56567;SDS011;42456;49.956;20.004;2023-01-29T04:16:25;17.60;;;8.90;;
56567;SDS011;42456;49.956;20.004;2023-01-29T04:18:54;19.50;;;8.80;;
56567;SDS011;42456;49.956;20.004;2023-01-29T04:21:22;18.80;;;9.40;;
56567;SDS011;42456;49.956;20.004;2023-01-29T04:23:51;19.50;;;8.80;;
56567;SDS011;42456;49.956;20.004;2023-01-29T04:43:24;19.70;;;8.50;;
56567;SDS011;42456;49.956;20.004;2023-01-29T04:51:10;14.20;;;7.10;;
56567;SDS011;42456;49.956;20.004;2023-01-29T04:53:54;17.10;;;8.10;;
56567;SDS011;42456;49.956;20.004;2023-01-29T04:56:29;17.30;;;7.80;;
56567;SDS011;42456;49.956;20.004;2023-01-29T04:58:59;15.50;;;7.40;;
56567;SDS011;42456;49.956;20.004;2023-01-29T05:01:30;20.00;;;7.90;;
56567;SDS011;42456;49.956;20.004;2023-01-29T05:04:01;18.60;;;8.00;;
56567;SDS011;42456;49.956;20.004;2023-01-29T05:06:31;19.20;;;8.30;;
56567;SDS011;42456;49.956;20.004;2023-01-29T05:08:59;16.80;;;8.00;;
56567;SDS011;42456;49.956;20.004;2023-01-29T05:11:27;17.90;;;9.00;;
56567;SDS011;42456;49.956;20.004;2023-01-29T05:13:57;19.10;;;8.40;;
56567;SDS011;42456;49.956;20.004;2023-01-29T05:16:27;16.20;;;7.70;;
56567;SDS011;42456;49.956;20.004;2023-01-29T05:19:10;17.60;;;7.80;;
56567;SDS011;42456;49.956;20.004;2023-01-29T05:21:39;18.90;;;9.00;;
56567;SDS011;42456;49.956;20.004;2023-01-29T05:24:10;20.70;;;10.60;;
56567;SDS011;42456;49.956;20.004;2023-01-29T05:26:41;18.80;;;8.90;;
56567;SDS011;42456;49.956;20.004;2023-01-29T05:29:24;18.30;;;8.40;;
56567;SDS011;42456;49.956;20.004;2023-01-29T05:31:51;18.00;;;8.90;;
56567;SDS011;42456;49.956;20.004;2023-01-29T05:34:18;16.90;;;8.50;;
56567;SDS011;42456;49.956;20.004;2023-01-29T05:36:45;21.00;;;9.40;;
56567;SDS011;42456;49.956;20.004;2023-01-29T05:39:11;17.00;;;8.50;;
56567;SDS011;42456;49.956;20.004;2023-01-29T05:41:38;16.40;;;8.50;;
56567;SDS011;42456;49.956;20.004;2023-01-29T05:44:05;17.20;;;8.70;;
56567;SDS011;42456;49.956;20.004;2023-01-29T05:46:32;16.50;;;8.00;;
56567;SDS011;42456;49.956;20.004;2023-01-29T05:48:59;16.80;;;8.00;;
56567;SDS011;42456;49.956;20.004;2023-01-29T05:51:25;16.90;;;8.30;;
56567;SDS011;42456;49.956;20.004;2023-01-29T05:53:52;16.00;;;7.40;;
56567;SDS011;42456;49.956;20.004;2023-01-29T05:56:19;14.50;;;7.70;;
56567;SDS011;42456;49.956;20.004;2023-01-29T05:58:46;14.30;;;7.30;;
56567;SDS011;42456;49.956;20.004;2023-01-29T06:01:15;17.10;;;7.60;;
56567;SDS011;42456;49.956;20.004;2023-01-29T06:03:44;13.00;;;6.60;;
56567;SDS011;42456;49.956;20.004;2023-01-29T06:06:11;12.80;;;6.00;;
56567;SDS011;42456;49.956;20.004;2023-01-29T06:08:38;15.40;;;6.90;;
56567;SDS011;42456;49.956;20.004;2023-01-29T06:11:06;13.60;;;6.80;;
56567;SDS011;42456;49.956;20.004;2023-01-29T06:13:34;13.20;;;6.60;;
56567;SDS011;42456;49.956;20.004;2023-01-29T06:16:03;18.10;;;7.10;;
56567;SDS011;42456;49.956;20.004;2023-01-29T06:18:32;18.00;;;8.40;;
56567;SDS011;42456;49.956;20.004;2023-01-29T06:21:00;15.10;;;7.70;;
56567;SDS011;42456;49.956;20.004;2023-01-29T06:23:28;14.90;;;7.10;;
56567;SDS011;42456;49.956;20.004;2023-01-29T06:25:59;13.70;;;6.60;;
56567;SDS011;42456;49.956;20.004;2023-01-29T06:28:26;15.70;;;7.50;;
56567;SDS011;42456;49.956;20.004;2023-01-29T06:30:57;13.80;;;6.80;;
56567;SDS011;42456;49.956;20.004;2023-01-29T06:33:37;14.80;;;6.50;;
56567;SDS011;42456;49.956;20.004;2023-01-29T06:36:04;11.70;;;6.30;;
56567;SDS011;42456;49.956;20.004;2023-01-29T06:38:31;14.80;;;7.20;;
56567;SDS011;42456;49.956;20.004;2023-01-29T06:40:59;13.70;;;6.90;;
56567;SDS011;42456;49.956;20.004;2023-01-29T06:43:25;14.70;;;6.80;;
56567;SDS011;42456;49.956;20.004;2023-01-29T06:45:53;14.90;;;7.30;;
56567;SDS011;42456;49.956;20.004;2023-01-29T06:48:22;14.70;;;6.10;;
56567;SDS011;42456;49.956;20.004;2023-01-29T06:50:50;13.20;;;6.60;;
56567;SDS011;42456;49.956;20.004;2023-01-29T06:53:20;15.40;;;7.30;;
56567;SDS011;42456;49.956;20.004;2023-01-29T06:55:50;11.90;;;5.80;;
56567;SDS011;42456;49.956;20.004;2023-01-29T06:58:18;13.70;;;6.80;;
56567;SDS011;42456;49.956;20.004;2023-01-29T07:00:45;11.00;;;5.60;;
56567;SDS011;42456;49.956;20.004;2023-01-29T07:03:12;12.50;;;6.20;;
56567;SDS011;42456;49.956;20.004;2023-01-29T07:05:39;13.60;;;5.90;;
56567;SDS011;42456;49.956;20.004;2023-01-29T07:08:06;10.90;;;5.80;;
56567;SDS011;42456;49.956;20.004;2023-01-29T07:10:35;10.80;;;6.10;;
56567;SDS011;42456;49.956;20.004;2023-01-29T07:13:01;11.90;;;5.10;;
56567;SDS011;42456;49.956;20.004;2023-01-29T07:15:28;10.30;;;5.40;;
56567;SDS011;42456;49.956;20.004;2023-01-29T07:20:30;11.50;;;5.70;;
56567;SDS011;42456;49.956;20.004;2023-01-29T07:22:57;17.40;;;7.30;;
56567;SDS011;42456;49.956;20.004;2023-01-29T07:25:24;19.50;;;7.90;;
56567;SDS011;42456;49.956;20.004;2023-01-29T07:27:51;17.50;;;7.20;;
56567;SDS011;42456;49.956;20.004;2023-01-29T07:30:18;15.20;;;5.80;;
56567;SDS011;42456;49.956;20.004;2023-01-29T07:32:45;14.30;;;6.00;;
56567;SDS011;42456;49.956;20.004;2023-01-29T07:35:12;14.10;;;6.20;;
56567;SDS011;42456;49.956;20.004;2023-01-29T07:37:39;13.40;;;6.30;;
56567;SDS011;42456;49.956;20.004;2023-01-29T07:40:06;16.10;;;6.80;;
56567;SDS011;42456;49.956;20.004;2023-01-29T07:42:37;15.00;;;7.10;;
56567;SDS011;42456;49.956;20.004;2023-01-29T07:45:05;15.80;;;6.30;;
56567;SDS011;42456;49.956;20.004;2023-01-29T07:47:32;19.80;;;7.30;;
56567;SDS011;42456;49.956;20.004;2023-01-29T07:49:59;11.10;;;4.80;;
56567;SDS011;42456;49.956;20.004;2023-01-29T07:52:28;9.90;;;4.90;;
56567;SDS011;42456;49.956;20.004;2023-01-29T07:57:23;17.40;;;6.80;;
56567;SDS011;42456;49.956;20.004;2023-01-29T07:59:50;16.40;;;7.10;;
56567;SDS011;42456;49.956;20.004;2023-01-29T08:02:17;13.90;;;6.20;;
56567;SDS011;42456;49.956;20.004;2023-01-29T08:04:44;15.70;;;7.00;;
56567;SDS011;42456;49.956;20.004;2023-01-29T08:07:11;16.10;;;7.40;;
56567;SDS011;42456;49.956;20.004;2023-01-29T08:09:38;17.40;;;8.30;;
56567;SDS011;42456;49.956;20.004;2023-01-29T08:12:04;21.70;;;11.10;;
56567;SDS011;42456;49.956;20.004;2023-01-29T08:14:31;22.50;;;10.70;;
56567;SDS011;42456;49.956;20.004;2023-01-29T08:16:58;21.40;;;9.30;;
56567;SDS011;42456;49.956;20.004;2023-01-29T08:19:25;22.00;;;10.40;;
56567;SDS011;42456;49.956;20.004;2023-01-29T08:21:52;16.70;;;8.20;;
56567;SDS011;42456;49.956;20.004;2023-01-29T08:24:19;15.60;;;7.00;;
56567;SDS011;42456;49.956;20.004;2023-01-29T08:26:45;19.00;;;8.10;;
56567;SDS011;42456;49.956;20.004;2023-01-29T08:29:12;30.00;;;11.50;;
56567;SDS011;42456;49.956;20.004;2023-01-29T08:31:39;30.00;;;11.50;;
56567;SDS011;42456;49.956;20.004;2023-01-29T08:34:06;30.70;;;13.10;;
56567;SDS011;42456;49.956;20.004;2023-01-29T08:36:33;22.00;;;9.20;;
56567;SDS011;42456;49.956;20.004;2023-01-29T08:39:00;15.40;;;7.30;;
56567;SDS011;42456;49.956;20.004;2023-01-29T08:41:27;14.30;;;6.20;;
56567;SDS011;42456;49.956;20.004;2023-01-29T08:43:54;15.80;;;7.30;;
56567;SDS011;42456;49.956;20.004;2023-01-29T08:46:22;15.20;;;7.20;;
56567;SDS011;42456;49.956;20.004;2023-01-29T08:48:49;11.80;;;5.60;;
56567;SDS011;42456;49.956;20.004;2023-01-29T08:51:16;9.40;;;4.80;;
56567;SDS011;42456;49.956;20.004;2023-01-29T08:53:43;7.80;;;4.40;;
56567;SDS011;42456;49.956;20.004;2023-01-29T08:56:10;10.10;;;4.80;;
56567;SDS011;42456;49.956;20.004;2023-01-29T08:58:36;10.40;;;4.70;;
56567;SDS011;42456;49.956;20.004;2023-01-29T09:01:07;9.60;;;5.10;;
56567;SDS011;42456;49.956;20.004;2023-01-29T09:03:36;11.90;;;5.20;;
56567;SDS011;42456;49.956;20.004;2023-01-29T09:06:07;13.80;;;6.50;;
56567;SDS011;42456;49.956;20.004;2023-01-29T09:08:35;16.90;;;6.10;;
56567;SDS011;42456;49.956;20.004;2023-01-29T09:11:03;17.70;;;6.90;;
56567;SDS011;42456;49.956;20.004;2023-01-29T09:13:30;15.20;;;6.40;;
56567;SDS011;42456;49.956;20.004;2023-01-29T09:15:57;12.40;;;5.00;;
56567;SDS011;42456;49.956;20.004;2023-01-29T09:18:25;12.20;;;5.80;;
56567;SDS011;42456;49.956;20.004;2023-01-29T09:20:53;12.00;;;5.40;;
56567;SDS011;42456;49.956;20.004;2023-01-29T09:23:20;10.70;;;5.00;;
56567;SDS011;42456;49.956;20.004;2023-01-29T09:25:47;11.90;;;5.90;;
56567;SDS011;42456;49.956;20.004;2023-01-29T09:28:14;11.50;;;5.70;;
56567;SDS011;42456;49.956;20.004;2023-01-29T09:30:43;10.40;;;5.50;;
56567;SDS011;42456;49.956;20.004;2023-01-29T09:33:10;9.80;;;5.40;;
56567;SDS011;42456;49.956;20.004;2023-01-29T09:35:41;11.00;;;5.20;;
56567;SDS011;42456;49.956;20.004;2023-01-29T09:38:08;15.80;;;6.80;;
56567;SDS011;42456;49.956;20.004;2023-01-29T09:43:38;15.30;;;6.70;;
56567;SDS011;42456;49.956;20.004;2023-01-29T09:48:51;11.50;;;5.20;;
56567;SDS011;42456;49.956;20.004;2023-01-29T09:51:28;9.90;;;5.00;;
56567;SDS011;42456;49.956;20.004;2023-01-29T09:56:40;12.00;;;5.60;;
56567;SDS011;42456;49.956;20.004;2023-01-29T09:59:09;9.90;;;4.70;;
56567;SDS011;42456;49.956;20.004;2023-01-29T10:01:49;9.80;;;5.40;;
56567;SDS011;42456;49.956;20.004;2023-01-29T10:12:44;11.00;;;5.30;;
56567;SDS011;42456;49.956;20.004;2023-01-29T10:24:02;14.00;;;5.80;;
56567;SDS011;42456;49.956;20.004;2023-01-29T10:26:39;10.30;;;5.10;;
56567;SDS011;42456;49.956;20.004;2023-01-29T10:29:07;13.50;;;6.20;;
56567;SDS011;42456;49.956;20.004;2023-01-29T10:31:39;16.10;;;7.30;;
56567;SDS011;42456;49.956;20.004;2023-01-29T10:36:48;11.40;;;5.70;;
56567;SDS011;42456;49.956;20.004;2023-01-29T10:39:18;11.30;;;5.80;;
56567;SDS011;42456;49.956;20.004;2023-01-29T10:55:33;15.00;;;7.40;;
56567;SDS011;42456;49.956;20.004;2023-01-29T11:01:01;17.40;;;8.20;;
56567;SDS011;42456;49.956;20.004;2023-01-29T11:03:29;17.10;;;8.90;;
56567;SDS011;42456;49.956;20.004;2023-01-29T11:08:53;18.10;;;9.10;;
56567;SDS011;42456;49.956;20.004;2023-01-29T11:14:18;19.70;;;9.80;;
56567;SDS011;42456;49.956;20.004;2023-01-29T11:16:50;16.90;;;8.70;;
56567;SDS011;42456;49.956;20.004;2023-01-29T11:19:17;19.60;;;10.30;;
56567;SDS011;42456;49.956;20.004;2023-01-29T11:22:01;18.00;;;9.30;;
56567;SDS011;42456;49.956;20.004;2023-01-29T11:24:29;19.00;;;9.60;;
56567;SDS011;42456;49.956;20.004;2023-01-29T11:26:57;19.60;;;9.10;;
56567;SDS011;42456;49.956;20.004;2023-01-29T11:32:14;15.20;;;7.90;;
56567;SDS011;42456;49.956;20.004;2023-01-29T11:34:55;15.00;;;7.90;;
56567;SDS011;42456;49.956;20.004;2023-01-29T11:37:32;16.40;;;8.50;;
56567;SDS011;42456;49.956;20.004;2023-01-29T11:40:28;18.40;;;9.20;;
56567;SDS011;42456;49.956;20.004;2023-01-29T11:43:03;13.00;;;6.90;;
56567;SDS011;42456;49.956;20.004;2023-01-29T11:45:38;15.50;;;7.80;;
56567;SDS011;42456;49.956;20.004;2023-01-29T11:48:10;15.30;;;8.00;;
56567;SDS011;42456;49.956;20.004;2023-01-29T11:50:41;17.00;;;8.80;;
56567;SDS011;42456;49.956;20.004;2023-01-29T11:53:21;18.30;;;8.90;;
56567;SDS011;42456;49.956;20.004;2023-01-29T11:55:52;15.80;;;7.60;;
56567;SDS011;42456;49.956;20.004;2023-01-29T12:00:54;17.50;;;8.40;;
56567;SDS011;42456;49.956;20.004;2023-01-29T12:03:38;17.40;;;8.40;;
56567;SDS011;42456;49.956;20.004;2023-01-29T12:08:56;16.90;;;7.70;;
56567;SDS011;42456;49.956;20.004;2023-01-29T12:11:28;14.70;;;7.10;;
56567;SDS011;42456;49.956;20.004;2023-01-29T12:13:58;18.20;;;7.40;;
56567;SDS011;42456;49.956;20.004;2023-01-29T12:16:51;15.80;;;7.30;;
56567;SDS011;42456;49.956;20.004;2023-01-29T12:19:26;17.20;;;8.50;;
56567;SDS011;42456;49.956;20.004;2023-01-29T12:24:38;18.00;;;8.00;;
56567;SDS011;42456;49.956;20.004;2023-01-29T12:27:18;20.10;;;9.10;;
56567;SDS011;42456;49.956;20.004;2023-01-29T12:35:35;20.10;;;9.70;;
56567;SDS011;42456;49.956;20.004;2023-01-29T12:38:20;20.70;;;8.70;;
56567;SDS011;42456;49.956;20.004;2023-01-29T12:40:50;18.80;;;8.80;;
56567;SDS011;42456;49.956;20.004;2023-01-29T12:43:22;18.90;;;8.60;;
56567;SDS011;42456;49.956;20.004;2023-01-29T12:45:57;17.40;;;8.50;;
56567;SDS011;42456;49.956;20.004;2023-01-29T12:48:29;19.10;;;8.80;;
56567;SDS011;42456;49.956;20.004;2023-01-29T12:51:42;19.40;;;9.10;;
56567;SDS011;42456;49.956;20.004;2023-01-29T12:53:55;18.10;;;9.10;;
56567;SDS011;42456;49.956;20.004;2023-01-29T12:56:28;16.40;;;7.90;;
56567;SDS011;42456;49.956;20.004;2023-01-29T12:58:59;17.30;;;7.60;;
56567;SDS011;42456;49.956;20.004;2023-01-29T13:02:38;16.60;;;8.20;;
56567;SDS011;42456;49.956;20.004;2023-01-29T13:07:46;17.90;;;7.70;;
56567;SDS011;42456;49.956;20.004;2023-01-29T13:10:17;18.50;;;9.50;;
56567;SDS011;42456;49.956;20.004;2023-01-29T13:12:57;19.40;;;7.40;;
56567;SDS011;42456;49.956;20.004;2023-01-29T13:15:36;18.90;;;8.90;;
56567;SDS011;42456;49.956;20.004;2023-01-29T13:21:05;18.30;;;8.20;;
56567;SDS011;42456;49.956;20.004;2023-01-29T13:23:37;17.60;;;7.40;;
56567;SDS011;42456;49.956;20.004;2023-01-29T13:26:08;21.80;;;9.30;;
56567;SDS011;42456;49.956;20.004;2023-01-29T13:28:36;19.40;;;8.30;;
56567;SDS011;42456;49.956;20.004;2023-01-29T13:31:16;19.40;;;9.10;;
56567;SDS011;42456;49.956;20.004;2023-01-29T13:33:53;19.00;;;9.00;;
56567;SDS011;42456;49.956;20.004;2023-01-29T13:36:27;18.20;;;7.60;;
56567;SDS011;42456;49.956;20.004;2023-01-29T13:39:00;19.50;;;9.20;;
56567;SDS011;42456;49.956;20.004;2023-01-29T13:41:36;20.80;;;10.30;;
56567;SDS011;42456;49.956;20.004;2023-01-29T13:44:06;23.20;;;9.20;;
56567;SDS011;42456;49.956;20.004;2023-01-29T13:46:52;17.60;;;8.00;;
56567;SDS011;42456;49.956;20.004;2023-01-29T13:55:03;18.10;;;8.50;;
56567;SDS011;42456;49.956;20.004;2023-01-29T13:57:57;18.40;;;8.10;;
56567;SDS011;42456;49.956;20.004;2023-01-29T14:05:37;16.20;;;8.10;;
56567;SDS011;42456;49.956;20.004;2023-01-29T14:08:07;16.50;;;8.30;;
56567;SDS011;42456;49.956;20.004;2023-01-29T14:13:44;15.60;;;7.20;;
56567;SDS011;42456;49.956;20.004;2023-01-29T14:21:25;14.60;;;6.90;;
56567;SDS011;42456;49.956;20.004;2023-01-29T14:26:43;16.20;;;7.50;;
56567;SDS011;42456;49.956;20.004;2023-01-29T14:29:21;17.20;;;7.30;;
56567;SDS011;42456;49.956;20.004;2023-01-29T14:34:33;15.40;;;7.10;;
56567;SDS011;42456;49.956;20.004;2023-01-29T14:56:03;15.50;;;7.50;;
56567;SDS011;42456;49.956;20.004;2023-01-29T15:01:16;21.50;;;9.20;;
56567;SDS011;42456;49.956;20.004;2023-01-29T15:03:51;20.60;;;8.10;;
56567;SDS011;42456;49.956;20.004;2023-01-29T15:06:32;20.10;;;7.90;;
56567;SDS011;42456;49.956;20.004;2023-01-29T15:09:13;16.70;;;7.30;;
56567;SDS011;42456;49.956;20.004;2023-01-29T15:11:47;17.70;;;7.60;;
56567;SDS011;42456;49.956;20.004;2023-01-29T15:14:23;18.40;;;7.80;;
56567;SDS011;42456;49.956;20.004;2023-01-29T15:19:47;17.30;;;7.30;;
56567;SDS011;42456;49.956;20.004;2023-01-29T15:22:15;16.70;;;7.90;;
56567;SDS011;42456;49.956;20.004;2023-01-29T15:24:44;15.10;;;7.20;;
56567;SDS011;42456;49.956;20.004;2023-01-29T15:27:16;19.20;;;8.50;;
56567;SDS011;42456;49.956;20.004;2023-01-29T15:29:54;16.80;;;7.70;;
56567;SDS011;42456;49.956;20.004;2023-01-29T15:32:37;16.00;;;7.60;;
56567;SDS011;42456;49.956;20.004;2023-01-29T15:38:05;17.80;;;8.50;;
56567;SDS011;42456;49.956;20.004;2023-01-29T15:40:38;17.60;;;8.40;;
56567;SDS011;42456;49.956;20.004;2023-01-29T15:43:27;18.20;;;8.50;;
56567;SDS011;42456;49.956;20.004;2023-01-29T15:45:58;18.10;;;8.60;;
56567;SDS011;42456;49.956;20.004;2023-01-29T15:48:29;18.60;;;8.50;;
56567;SDS011;42456;49.956;20.004;2023-01-29T15:51:00;19.90;;;9.20;;
56567;SDS011;42456;49.956;20.004;2023-01-29T15:53:33;18.10;;;7.90;;
56567;SDS011;42456;49.956;20.004;2023-01-29T15:56:06;18.10;;;8.20;;
56567;SDS011;42456;49.956;20.004;2023-01-29T15:58:37;19.00;;;9.30;;
56567;SDS011;42456;49.956;20.004;2023-01-29T16:01:05;18.50;;;9.00;;
56567;SDS011;42456;49.956;20.004;2023-01-29T16:03:32;14.40;;;7.60;;
56567;SDS011;42456;49.956;20.004;2023-01-29T16:06:01;21.40;;;8.90;;
56567;SDS011;42456;49.956;20.004;2023-01-29T16:08:28;18.30;;;8.40;;
56567;SDS011;42456;49.956;20.004;2023-01-29T16:10:57;22.10;;;9.50;;
56567;SDS011;42456;49.956;20.004;2023-01-29T16:13:32;19.30;;;8.40;;
56567;SDS011;42456;49.956;20.004;2023-01-29T16:16:03;19.50;;;9.00;;
56567;SDS011;42456;49.956;20.004;2023-01-29T16:18:45;21.80;;;9.70;;
56567;SDS011;42456;49.956;20.004;2023-01-29T16:21:30;21.00;;;9.10;;
56567;SDS011;42456;49.956;20.004;2023-01-29T16:24:03;22.60;;;9.30;;
56567;SDS011;42456;49.956;20.004;2023-01-29T16:26:40;18.40;;;7.80;;
56567;SDS011;42456;49.956;20.004;2023-01-29T16:29:12;19.00;;;8.40;;
56567;SDS011;42456;49.956;20.004;2023-01-29T16:31:41;21.10;;;9.80;;
56567;SDS011;42456;49.956;20.004;2023-01-29T16:34:14;21.10;;;9.00;;
56567;SDS011;42456;49.956;20.004;2023-01-29T16:36:50;19.60;;;9.10;;
56567;SDS011;42456;49.956;20.004;2023-01-29T16:39:30;21.90;;;10.10;;
56567;SDS011;42456;49.956;20.004;2023-01-29T16:47:27;20.00;;;9.20;;
56567;SDS011;42456;49.956;20.004;2023-01-29T16:55:43;22.40;;;10.90;;
56567;SDS011;42456;49.956;20.004;2023-01-29T16:58:16;23.30;;;11.10;;
56567;SDS011;42456;49.956;20.004;2023-01-29T17:01:20;18.80;;;9.70;;
56567;SDS011;42456;49.956;20.004;2023-01-29T17:03:40;21.70;;;11.00;;
56567;SDS011;42456;49.956;20.004;2023-01-29T17:06:09;21.80;;;10.10;;
56567;SDS011;42456;49.956;20.004;2023-01-29T17:08:46;22.30;;;10.30;;
56567;SDS011;42456;49.956;20.004;2023-01-29T17:11:30;24.30;;;11.00;;
56567;SDS011;42456;49.956;20.004;2023-01-29T17:14:03;20.50;;;9.90;;
56567;SDS011;42456;49.956;20.004;2023-01-29T17:18:59;20.10;;;9.70;;
56567;SDS011;42456;49.956;20.004;2023-01-29T17:21:29;22.90;;;10.70;;
56567;SDS011;42456;49.956;20.004;2023-01-29T17:23:56;23.20;;;10.80;;
56567;SDS011;42456;49.956;20.004;2023-01-29T17:26:23;18.80;;;9.00;;
56567;SDS011;42456;49.956;20.004;2023-01-29T17:28:50;23.10;;;11.20;;
56567;SDS011;42456;49.956;20.004;2023-01-29T17:31:19;21.10;;;9.30;;
56567;SDS011;42456;49.956;20.004;2023-01-29T17:33:46;19.60;;;9.10;;
56567;SDS011;42456;49.956;20.004;2023-01-29T17:36:14;18.40;;;8.70;;
56567;SDS011;42456;49.956;20.004;2023-01-29T17:38:42;19.50;;;9.90;;
56567;SDS011;42456;49.956;20.004;2023-01-29T17:43:51;20.90;;;9.70;;
56567;SDS011;42456;49.956;20.004;2023-01-29T17:46:19;22.70;;;9.80;;
56567;SDS011;42456;49.956;20.004;2023-01-29T17:48:46;19.80;;;9.60;;
56567;SDS011;42456;49.956;20.004;2023-01-29T17:51:15;21.50;;;9.80;;
56567;SDS011;42456;49.956;20.004;2023-01-29T17:53:43;24.30;;;10.80;;
56567;SDS011;42456;49.956;20.004;2023-01-29T17:56:13;25.70;;;11.50;;
56567;SDS011;42456;49.956;20.004;2023-01-29T18:01:09;18.20;;;8.90;;
56567;SDS011;42456;49.956;20.004;2023-01-29T18:03:35;27.60;;;11.30;;
56567;SDS011;42456;49.956;20.004;2023-01-29T18:06:05;27.00;;;11.80;;
56567;SDS011;42456;49.956;20.004;2023-01-29T18:08:33;24.30;;;11.10;;
56567;SDS011;42456;49.956;20.004;2023-01-29T18:11:02;27.50;;;11.80;;
56567;SDS011;42456;49.956;20.004;2023-01-29T18:13:30;18.80;;;9.40;;